VAAH Airport Information

Runway Information
Runway 05 Length 11447 ft width 150 ft
Elevation 180 ft Threshold 0 ft Heading 45
Runway 23 Length 11447 ft Width 150 ft
Elevation 189 ft Threshold 0 ft Heading 225
Airport Frequencies
Type ACC Name RADAR Frequency 123.75 MHZ
Type APP Name APPROACH Frequency 119.8 MHZ
Type ATIS Name ATIS Frequency 126.8 MHZ
Type TWR Name TOWER Frequency 119.6 MHZ
Airport Navaids
Type VOR-DME Name Ahmedabad Frequency 113100 KHZ
Type NDB Name Ahmedabad Frequency 215 KHZ
Airport Weather Information & NOTAM
ADDS - METARS form results

(2159 UTC 22 July 2018)
 
METAR text: VAAH 222130Z 23006KT 3000 BR SCT020 BKN080 28/25 Q1000 NOSIG
Conditions at: VAAH (AHMADABAD , IN) observed 2130 UTC 22 July 2018
Temperature: 28.0°C (82°F)
Dewpoint: 25.0°C (77°F) [RH = 84%]
Pressure (altimeter): 29.53 inches Hg (1000.0 mb)
Winds: from the SW (230 degrees) at 7 MPH (6 knots; 3.1 m/s)
Visibility: 1.86 miles (2.99 km)
Ceiling: 8000 feet AGL
Clouds: scattered clouds at 2000 feet AGL
broken clouds at 8000 feet AGL
Weather: BR  (mist)

METAR text: VAAH 222100Z 23007KT 3000 BR SCT020 BKN080 28/25 Q1000 NOSIG
Conditions at: VAAH (AHMADABAD , IN) observed 2100 UTC 22 July 2018
Temperature: 28.0°C (82°F)
Dewpoint: 25.0°C (77°F) [RH = 84%]
Pressure (altimeter): 29.53 inches Hg (1000.0 mb)
Winds: from the SW (230 degrees) at 8 MPH (7 knots; 3.6 m/s)
Visibility: 1.86 miles (2.99 km)
Ceiling: 8000 feet AGL
Clouds: scattered clouds at 2000 feet AGL
broken clouds at 8000 feet AGL
Weather: BR  (mist)